Time;durP1;ratioP1;P1;durP2;ratioP2;P2;SDS_P1;SDS_P2;PMS_P1;PMS_P2;Temp;Humidity;BMP_temperature;BMP_pressure;BME280_temperature;BME280_humidity;BME280_pressure;Samples;Min_cycle;Max_cycle;Signal;HPM_P1;HPM_P2
2023/10/04 00:00:42;;;;;;;24.65;14.45;;;23.80;99.90;;;;;;6221098;28;94067;-76
2023/10/04 00:03:46;;;;;;;21.90;14.13;;;23.70;99.90;;;;;;6222251;28;94104;-78
2023/10/04 00:06:48;;;;;;;22.27;14.15;;;23.70;99.90;;;;;;6222365;28;94065;-77
2023/10/04 00:09:51;;;;;;;24.15;14.93;;;23.70;99.90;;;;;;6223978;28;94067;-77
2023/10/04 00:12:54;;;;;;;19.58;12.73;;;23.70;99.90;;;;;;6217094;28;94521;-78
2023/10/04 00:15:56;;;;;;;23.05;13.60;;;23.70;99.90;;;;;;6220844;28;93273;-74
2023/10/04 00:18:58;;;;;;;19.95;12.43;;;23.70;99.90;;;;;;6223854;28;94098;-77
2023/10/04 00:22:01;;;;;;;20.05;12.25;;;23.70;99.90;;;;;;6216868;28;94089;-76
2023/10/04 00:25:08;;;;;;;20.58;12.55;;;23.70;99.90;;;;;;6215912;28;94709;-80
2023/10/04 00:28:12;;;;;;;19.33;11.82;;;23.70;99.90;;;;;;6221351;28;94090;-78
2023/10/04 00:31:14;;;;;;;18.80;11.68;;;23.70;99.90;;;;;;6216000;28;94038;-76
2023/10/04 00:34:16;;;;;;;22.10;12.40;;;23.70;99.90;;;;;;6219615;28;94361;-76
2023/10/04 00:37:18;;;;;;;18.40;11.73;;;23.70;99.90;;;;;;6222482;28;94115;-77
2023/10/04 00:40:23;;;;;;;16.80;10.82;;;23.70;99.90;;;;;;6219513;28;92958;-72
2023/10/04 00:43:27;;;;;;;17.83;11.20;;;23.70;99.90;;;;;;6209040;28;94150;-75
2023/10/04 00:46:30;;;;;;;18.65;11.15;;;23.70;99.90;;;;;;6213541;28;92411;-76
2023/10/04 00:49:33;;;;;;;18.40;10.77;;;23.70;99.90;;;;;;6226171;28;93073;-77
2023/10/04 00:52:35;;;;;;;17.85;10.40;;;23.70;99.90;;;;;;6226232;28;94203;-76
2023/10/04 00:55:40;;;;;;;17.02;10.15;;;23.70;99.90;;;;;;6209001;28;95440;-75
2023/10/04 00:58:45;;;;;;;17.45;10.23;;;23.70;99.90;;;;;;6220306;28;94118;-77
2023/10/04 01:01:47;;;;;;;16.35;10.10;;;23.70;99.90;;;;;;6221434;28;94050;-75
2023/10/04 01:04:50;;;;;;;16.38;10.77;;;23.70;99.90;;;;;;6221997;28;96377;-75
2023/10/04 01:07:53;;;;;;;13.73;10.00;;;23.70;99.90;;;;;;6220675;28;94328;-77
2023/10/04 01:10:55;;;;;;;15.63;9.75;;;23.70;99.90;;;;;;6219663;28;94092;-74
2023/10/04 01:14:09;;;;;;;14.95;10.00;;;23.70;99.90;;;;;;6221714;28;94015;-75
2023/10/04 01:17:13;;;;;;;18.48;10.07;;;23.70;99.90;;;;;;6226141;28;93239;-77
2023/10/04 01:20:16;;;;;;;16.75;9.32;;;23.70;99.90;;;;;;6225147;28;93084;-78
2023/10/04 01:23:19;;;;;;;15.55;9.70;;;23.70;99.90;;;;;;6226398;28;94524;-75
2023/10/04 01:26:26;;;;;;;14.57;9.35;;;23.70;99.90;;;;;;6215419;28;94999;-77
2023/10/04 01:29:29;;;;;;;15.30;9.90;;;23.70;99.90;;;;;;6224397;28;94017;-75
2023/10/04 01:32:31;;;;;;;14.13;8.98;;;23.70;99.90;;;;;;6222134;28;94397;-77
2023/10/04 01:35:33;;;;;;;15.52;9.07;;;23.70;99.90;;;;;;6224201;28;93899;-77
2023/10/04 01:38:37;;;;;;;12.73;8.60;;;23.70;99.90;;;;;;6223806;28;94079;-79
2023/10/04 01:41:39;;;;;;;17.40;9.63;;;23.70;99.90;;;;;;6213870;28;94216;-78
2023/10/04 01:44:40;;;;;;;15.45;9.32;;;23.70;99.90;;;;;;6218675;28;94256;-71
2023/10/04 01:47:43;;;;;;;13.75;8.38;;;23.70;99.90;;;;;;6214072;28;93406;-77
2023/10/04 01:50:48;;;;;;;12.32;7.50;;;23.70;99.90;;;;;;6219841;28;93707;-75
2023/10/04 01:53:53;;;;;;;12.88;8.45;;;23.70;99.90;;;;;;6220358;28;94220;-75
2023/10/04 01:56:55;;;;;;;12.45;8.27;;;23.70;99.90;;;;;;6223514;28;94160;-77
2023/10/04 01:59:57;;;;;;;12.77;7.95;;;23.70;99.90;;;;;;6222984;28;94168;-71
2023/10/04 02:03:01;;;;;;;14.63;8.82;;;23.60;99.90;;;;;;6228944;28;94053;-74
2023/10/04 02:06:05;;;;;;;12.30;7.60;;;23.70;99.90;;;;;;6224936;28;94152;-75
2023/10/04 02:09:11;;;;;;;11.85;7.25;;;23.60;99.90;;;;;;6223219;28;94349;-76
2023/10/04 02:12:13;;;;;;;12.43;7.50;;;23.70;99.90;;;;;;6225856;28;94112;-76
2023/10/04 02:15:16;;;;;;;10.57;7.13;;;23.60;99.90;;;;;;6223646;28;94088;-75
2023/10/04 02:18:19;;;;;;;10.40;6.55;;;23.60;99.90;;;;;;6228901;28;93331;-76
2023/10/04 02:21:22;;;;;;;10.10;6.80;;;23.60;99.90;;;;;;6228446;28;94084;-76
2023/10/04 02:24:26;;;;;;;13.23;7.60;;;23.60;99.90;;;;;;6225382;28;94634;-75
2023/10/04 02:27:29;;;;;;;11.60;7.60;;;23.60;99.90;;;;;;6217976;28;94972;-75
2023/10/04 02:30:30;;;;;;;9.88;6.53;;;23.60;99.90;;;;;;6228535;28;94108;-75
2023/10/04 02:33:34;;;;;;;11.07;7.03;;;23.60;99.90;;;;;;6217666;28;94015;-75
2023/10/04 02:36:37;;;;;;;8.73;6.18;;;23.60;99.90;;;;;;6228601;28;94030;-76
2023/10/04 02:39:40;;;;;;;10.23;6.82;;;23.60;99.90;;;;;;6227754;28;94223;-76
2023/10/04 02:42:44;;;;;;;8.82;6.20;;;23.60;99.90;;;;;;6219882;28;94026;-75
2023/10/04 02:45:47;;;;;;;12.35;7.18;;;23.60;99.90;;;;;;6225204;28;94296;-76
2023/10/04 02:48:49;;;;;;;8.50;5.78;;;23.60;99.90;;;;;;6229223;28;93360;-74
2023/10/04 02:51:51;;;;;;;9.23;5.72;;;23.60;99.90;;;;;;6226501;28;94072;-75
2023/10/04 02:54:54;;;;;;;8.73;5.90;;;23.60;99.90;;;;;;6227314;28;94250;-75
2023/10/04 02:57:56;;;;;;;9.93;6.25;;;23.50;99.90;;;;;;6226305;28;95209;-75
2023/10/04 03:00:58;;;;;;;8.45;6.00;;;23.50;99.90;;;;;;6226886;28;94107;-74
2023/10/04 03:04:01;;;;;;;10.00;6.22;;;23.50;99.90;;;;;;6225865;28;94108;-75
2023/10/04 03:07:05;;;;;;;10.02;6.15;;;23.60;99.90;;;;;;6227298;28;94178;-77
2023/10/04 03:10:11;;;;;;;9.77;5.70;;;23.50;99.90;;;;;;6227668;28;94119;-77
2023/10/04 03:13:16;;;;;;;8.77;6.00;;;23.50;99.90;;;;;;6217489;28;94064;-75
2023/10/04 03:16:18;;;;;;;7.82;5.53;;;23.60;99.90;;;;;;6225888;28;94225;-75
2023/10/04 03:19:20;;;;;;;7.57;5.60;;;23.50;99.90;;;;;;6226136;28;93375;-76
2023/10/04 03:22:22;;;;;;;7.50;5.50;;;23.50;99.90;;;;;;6226266;28;94110;-75
2023/10/04 03:25:26;;;;;;;7.75;5.72;;;23.50;99.90;;;;;;6226408;28;94401;-75
2023/10/04 03:28:33;;;;;;;8.00;5.82;;;23.50;99.90;;;;;;6219245;28;94994;-74
2023/10/04 03:31:35;;;;;;;7.82;5.43;;;23.50;99.90;;;;;;6219303;28;94588;-75
2023/10/04 03:34:38;;;;;;;7.18;5.35;;;23.50;99.90;;;;;;6227024;28;94407;-75
2023/10/04 03:37:49;;;;;;;8.18;5.45;;;23.50;99.90;;;;;;6219215;28;94135;-74
2023/10/04 03:40:55;;;;;;;6.47;5.43;;;23.50;99.90;;;;;;6221067;28;94143;-74
2023/10/04 03:43:57;;;;;;;6.68;5.18;;;23.40;99.90;;;;;;6222576;28;94082;-74
2023/10/04 03:47:00;;;;;;;6.63;5.13;;;23.50;99.90;;;;;;6216264;28;94126;-74
2023/10/04 03:50:02;;;;;;;6.45;5.10;;;23.40;99.90;;;;;;6226960;28;93349;-74
2023/10/04 03:53:04;;;;;;;7.18;5.30;;;23.40;99.90;;;;;;6225410;28;93425;-74
2023/10/04 03:56:10;;;;;;;6.82;4.88;;;23.50;99.90;;;;;;6220747;28;94211;-74
2023/10/04 03:59:12;;;;;;;7.13;5.28;;;23.50;99.90;;;;;;6226835;28;95062;-75
2023/10/04 04:02:16;;;;;;;6.45;4.90;;;23.40;99.90;;;;;;6225886;28;95302;-75
2023/10/04 04:05:21;;;;;;;7.90;5.40;;;23.50;99.90;;;;;;6224419;28;94134;-75
2023/10/04 04:08:23;;;;;;;7.55;5.28;;;23.40;99.90;;;;;;6226210;28;94230;-75
2023/10/04 04:11:26;;;;;;;7.47;5.30;;;23.40;99.90;;;;;;6225737;28;94056;-75
2023/10/04 04:14:29;;;;;;;6.32;4.88;;;23.40;99.90;;;;;;6224805;28;94093;-74
2023/10/04 04:17:31;;;;;;;6.80;5.35;;;23.40;99.90;;;;;;6222080;28;94049;-74
2023/10/04 04:20:35;;;;;;;7.10;5.10;;;23.40;99.90;;;;;;6226139;28;93378;-76
2023/10/04 04:23:37;;;;;;;7.25;5.20;;;23.40;99.90;;;;;;6227348;28;94328;-75
2023/10/04 04:26:41;;;;;;;6.32;4.95;;;23.40;99.90;;;;;;6226010;28;94100;-75
2023/10/04 04:29:43;;;;;;;6.38;4.85;;;23.40;99.90;;;;;;6225876;28;93929;-74
2023/10/04 04:32:47;;;;;;;6.00;5.00;;;23.40;99.90;;;;;;6224466;28;93875;-75
2023/10/04 04:35:52;;;;;;;5.95;4.68;;;23.40;99.90;;;;;;6226997;28;94498;-75
2023/10/04 04:38:55;;;;;;;6.43;4.88;;;23.40;99.90;;;;;;6225466;28;94049;-75
2023/10/04 04:41:59;;;;;;;6.70;5.32;;;23.40;99.90;;;;;;6222537;28;94201;-76
2023/10/04 04:45:08;;;;;;;5.63;4.72;;;23.40;99.90;;;;;;6222965;28;94134;-75
2023/10/04 04:48:10;;;;;;;6.95;5.35;;;23.40;99.90;;;;;;6224646;28;94108;-74
2023/10/04 04:51:14;;;;;;;6.95;4.75;;;23.40;99.90;;;;;;6218892;28;93478;-76
2023/10/04 04:54:18;;;;;;;7.53;5.10;;;23.40;99.90;;;;;;6217642;28;93876;-75
2023/10/04 04:57:21;;;;;;;7.10;5.20;;;23.40;99.90;;;;;;6222126;28;94220;-78
2023/10/04 05:00:34;;;;;;;6.20;4.97;;;23.40;99.90;;;;;;6223311;28;96364;-74
2023/10/04 05:03:41;;;;;;;6.55;5.28;;;23.40;99.90;;;;;;6223054;28;93380;-74
2023/10/04 05:06:43;;;;;;;8.50;5.10;;;23.40;99.90;;;;;;6223082;28;94120;-73
2023/10/04 05:09:45;;;;;;;6.95;5.20;;;23.40;99.90;;;;;;6225941;28;93996;-74
2023/10/04 05:12:48;;;;;;;6.95;5.10;;;23.40;99.90;;;;;;6223745;28;94129;-73
2023/10/04 05:15:50;;;;;;;8.32;5.40;;;23.40;99.90;;;;;;6226721;28;94055;-73
2023/10/04 05:18:53;;;;;;;6.47;4.78;;;23.40;99.90;;;;;;6230825;28;94115;-74
2023/10/04 05:21:56;;;;;;;6.45;4.68;;;23.40;99.90;;;;;;6226812;28;93336;-74
2023/10/04 05:24:58;;;;;;;5.57;4.93;;;23.40;99.90;;;;;;6229353;28;93999;-73
2023/10/04 05:28:06;;;;;;;6.50;5.03;;;23.40;99.90;;;;;;6216180;28;94146;-73
2023/10/04 05:31:08;;;;;;;5.88;4.43;;;23.40;99.90;;;;;;6224655;28;95000;-73
2023/10/04 05:34:11;;;;;;;8.88;5.50;;;23.40;99.90;;;;;;6218888;28;94056;-74
2023/10/04 05:37:13;;;;;;;5.75;4.90;;;23.30;99.90;;;;;;6221817;28;93992;-74
2023/10/04 05:40:23;;;;;;;5.88;4.65;;;23.40;99.90;;;;;;6207065;28;94112;-73
2023/10/04 05:43:28;;;;;;;5.55;4.93;;;23.30;99.90;;;;;;6215650;28;94023;-73
2023/10/04 05:46:30;;;;;;;7.53;4.68;;;23.30;99.90;;;;;;6228716;28;94329;-73
2023/10/04 05:49:32;;;;;;;5.88;5.07;;;23.30;99.90;;;;;;6229406;28;94387;-74
2023/10/04 05:52:34;;;;;;;5.38;4.70;;;23.30;99.90;;;;;;6229524;28;93319;-73
2023/10/04 05:55:37;;;;;;;6.25;5.30;;;23.30;99.90;;;;;;6227599;28;94067;-74
2023/10/04 05:58:40;;;;;;;5.80;5.20;;;23.30;99.90;;;;;;6227348;28;94163;-74
2023/10/04 06:01:42;;;;;;;6.80;5.05;;;23.30;99.90;;;;;;6226239;28;95048;-73
2023/10/04 06:04:47;;;;;;;6.18;4.65;;;23.40;99.90;;;;;;6219053;28;94328;-74
2023/10/04 06:07:50;;;;;;;5.78;4.88;;;23.40;99.90;;;;;;6229194;28;94084;-74
2023/10/04 06:10:54;;;;;;;6.22;5.15;;;23.40;99.90;;;;;;6228526;28;94275;-73
2023/10/04 06:13:58;;;;;;;5.95;4.90;;;23.40;99.90;;;;;;6228614;28;94184;-74
2023/10/04 06:17:01;;;;;;;5.88;5.05;;;23.40;99.90;;;;;;6228201;28;94191;-73
2023/10/04 06:20:13;;;;;;;6.28;5.18;;;23.40;99.90;;;;;;6228451;28;94082;-75
2023/10/04 06:23:17;;;;;;;8.00;5.13;;;23.40;99.90;;;;;;6223773;28;93409;-74
2023/10/04 06:26:19;;;;;;;8.05;5.50;;;23.40;99.90;;;;;;6217110;28;93909;-74
2023/10/04 06:29:22;;;;;;;6.72;4.93;;;23.40;99.90;;;;;;6228938;28;94173;-73
2023/10/04 06:32:24;;;;;;;6.18;4.95;;;23.40;99.90;;;;;;6228475;28;95049;-74
2023/10/04 06:35:27;;;;;;;6.07;5.15;;;23.40;99.90;;;;;;6227279;28;94086;-74
2023/10/04 06:38:33;;;;;;;5.47;4.72;;;23.40;99.90;;;;;;6227144;28;93753;-73
2023/10/04 06:41:35;;;;;;;5.35;4.68;;;23.40;99.90;;;;;;6223946;28;94377;-74
2023/10/04 06:44:38;;;;;;;5.53;4.85;;;23.40;99.90;;;;;;6229015;28;94493;-74
2023/10/04 06:47:43;;;;;;;5.65;5.03;;;23.40;99.90;;;;;;6228820;28;94084;-75
2023/10/04 06:50:49;;;;;;;6.18;5.07;;;23.40;99.90;;;;;;6235200;28;94252;-74
2023/10/04 06:53:51;;;;;;;5.80;5.20;;;23.40;99.90;;;;;;6217979;28;93386;-73
2023/10/04 06:56:54;;;;;;;6.93;5.30;;;23.40;99.90;;;;;;6228627;28;94364;-74
2023/10/04 06:59:59;;;;;;;5.60;4.95;;;23.40;99.90;;;;;;6229164;28;94830;-74
2023/10/04 07:03:01;;;;;;;5.80;4.88;;;23.40;99.90;;;;;;6227769;28;95000;-74
2023/10/04 07:06:03;;;;;;;5.32;4.82;;;23.40;99.90;;;;;;6228146;28;94100;-74
2023/10/04 07:09:07;;;;;;;5.60;5.00;;;23.40;99.90;;;;;;6234752;28;94159;-74
2023/10/04 07:12:09;;;;;;;5.43;4.78;;;23.40;99.90;;;;;;6233903;27;94241;-73
2023/10/04 07:15:13;;;;;;;5.93;5.30;;;23.40;99.90;;;;;;6236389;27;94049;-74
2023/10/04 07:18:15;;;;;;;5.75;5.10;;;23.40;99.90;;;;;;6227157;28;95460;-73
2023/10/04 07:21:17;;;;;;;6.30;5.38;;;23.40;99.90;;;;;;6226246;28;94254;-75
2023/10/04 07:24:19;;;;;;;5.78;5.18;;;23.40;99.90;;;;;;6228575;28;93344;-73
2023/10/04 07:27:21;;;;;;;5.68;5.07;;;23.40;99.90;;;;;;6227029;28;93966;-74
2023/10/04 07:30:25;;;;;;;5.70;5.10;;;23.40;99.90;;;;;;6227822;28;94058;-73
2023/10/04 07:33:27;;;;;;;5.25;4.75;;;23.40;99.90;;;;;;6226121;28;95060;-73
2023/10/04 07:36:29;;;;;;;5.20;4.70;;;23.40;99.90;;;;;;6227298;28;94076;-74
2023/10/04 07:39:32;;;;;;;5.40;4.90;;;23.40;99.90;;;;;;6226558;28;94610;-73
2023/10/04 07:42:34;;;;;;;5.90;5.03;;;23.40;99.90;;;;;;6226121;28;94068;-74
2023/10/04 07:45:38;;;;;;;5.63;4.88;;;23.40;99.90;;;;;;6225362;28;94078;-74
2023/10/04 07:48:42;;;;;;;5.22;4.72;;;23.40;99.90;;;;;;6227704;28;94142;-74
2023/10/04 07:51:44;;;;;;;8.43;5.78;;;23.40;99.90;;;;;;6225627;28;94187;-73
2023/10/04 07:54:46;;;;;;;6.18;5.05;;;23.40;99.90;;;;;;6227158;28;93302;-74
2023/10/04 07:57:49;;;;;;;5.20;4.57;;;23.40;99.90;;;;;;6217113;28;94096;-74
2023/10/04 08:00:53;;;;;;;5.30;4.63;;;23.40;99.90;;;;;;6227235;28;94079;-74
2023/10/04 08:03:55;;;;;;;5.75;4.95;;;23.40;99.90;;;;;;6225635;28;95017;-74
2023/10/04 08:06:58;;;;;;;5.70;4.95;;;23.40;99.90;;;;;;6226518;28;94379;-75
2023/10/04 08:10:00;;;;;;;5.28;4.78;;;23.40;99.90;;;;;;6208299;28;94084;-74
2023/10/04 08:13:03;;;;;;;5.05;4.55;;;23.40;99.90;;;;;;6230808;28;94091;-74
2023/10/04 08:16:08;;;;;;;5.38;4.85;;;23.40;99.90;;;;;;6227204;28;94116;-74
2023/10/04 08:19:10;;;;;;;6.30;5.10;;;23.40;99.90;;;;;;6229971;27;94452;-75
2023/10/04 08:22:12;;;;;;;5.60;4.72;;;23.40;99.90;;;;;;6225026;28;93096;-75
2023/10/04 08:25:16;;;;;;;5.35;4.70;;;23.40;99.90;;;;;;6227427;28;93323;-74
2023/10/04 08:28:18;;;;;;;5.47;4.65;;;23.40;99.90;;;;;;6226571;28;94058;-73
2023/10/04 08:31:21;;;;;;;4.95;4.30;;;23.40;99.90;;;;;;6226585;28;94297;-73
2023/10/04 08:34:24;;;;;;;6.28;5.10;;;23.40;99.90;;;;;;6225449;28;95258;-75
2023/10/04 08:37:27;;;;;;;5.97;5.10;;;23.40;99.90;;;;;;6226738;28;94062;-74
2023/10/04 08:40:30;;;;;;;5.68;4.78;;;23.40;99.90;;;;;;6237742;28;94067;-73
2023/10/04 08:43:32;;;;;;;5.53;4.63;;;23.40;99.90;;;;;;6217135;28;93159;-73
2023/10/04 08:46:39;;;;;;;5.15;4.65;;;23.40;99.90;;;;;;6236887;28;94068;-73
2023/10/04 08:49:50;;;;;;;5.00;4.50;;;23.40;99.90;;;;;;6232757;28;94220;-73
2023/10/04 08:53:03;;;;;;;5.40;4.35;;;23.40;99.90;;;;;;6225062;28;92978;-73
2023/10/04 08:56:11;;;;;;;4.82;4.38;;;23.40;99.90;;;;;;6224769;28;93633;-74
2023/10/04 08:59:13;;;;;;;5.03;4.30;;;23.40;99.90;;;;;;6229935;28;94038;-74
2023/10/04 09:02:20;;;;;;;4.57;4.13;;;23.40;99.90;;;;;;6229098;28;94113;-74
2023/10/04 09:05:23;;;;;;;5.78;4.57;;;23.40;99.90;;;;;;6223700;28;95050;-73
2023/10/04 09:08:26;;;;;;;4.95;4.45;;;23.40;99.90;;;;;;6230089;28;94181;-74
2023/10/04 09:11:28;;;;;;;5.15;4.38;;;23.40;99.90;;;;;;6230103;28;94145;-74
2023/10/04 09:14:31;;;;;;;5.47;4.50;;;23.40;99.90;;;;;;6229313;28;93940;-74
2023/10/04 09:17:47;;;;;;;5.10;4.07;;;23.40;99.90;;;;;;6224643;28;93053;-73
2023/10/04 09:20:49;;;;;;;4.72;4.00;;;23.40;99.90;;;;;;6234451;27;92794;-75
2023/10/04 09:24:06;;;;;;;4.97;4.30;;;23.40;99.90;;;;;;6231566;27;94047;-73
2023/10/04 09:27:08;;;;;;;4.43;4.00;;;23.40;99.90;;;;;;6229538;28;93424;-74
2023/10/04 09:30:22;;;;;;;4.95;4.40;;;23.40;99.90;;;;;;6227559;28;94095;-73
2023/10/04 09:33:28;;;;;;;4.65;4.15;;;23.40;99.90;;;;;;6229661;28;94152;-75
2023/10/04 09:36:34;;;;;;;3.90;3.50;;;23.30;99.90;;;;;;6227528;28;94965;-74
2023/10/04 09:39:37;;;;;;;4.43;4.03;;;23.40;99.90;;;;;;6240034;28;94397;-73
2023/10/04 09:42:52;;;;;;;4.32;3.83;;;23.40;99.90;;;;;;6227577;28;94207;-74
2023/10/04 09:45:57;;;;;;;4.65;4.10;;;23.40;99.90;;;;;;6225035;28;94079;-74
2023/10/04 09:49:06;;;;;;;5.00;4.25;;;23.40;99.90;;;;;;6227671;28;94074;-74
2023/10/04 09:52:12;;;;;;;4.70;4.10;;;23.40;99.90;;;;;;6227003;28;92978;-74
2023/10/04 09:55:14;;;;;;;4.28;3.78;;;23.40;99.90;;;;;;6225723;28;94214;-74
2023/10/04 09:58:21;;;;;;;4.35;3.95;;;23.40;99.90;;;;;;6232172;28;93864;-74
2023/10/04 10:01:28;;;;;;;4.30;3.90;;;23.40;99.90;;;;;;6228321;28;94049;-73
2023/10/04 10:04:37;;;;;;;4.40;4.00;;;23.40;99.90;;;;;;6227967;28;93985;-74
2023/10/04 10:07:42;;;;;;;4.07;3.58;;;23.40;99.90;;;;;;6227141;28;94532;-74
2023/10/04 10:10:44;;;;;;;4.50;3.95;;;23.40;99.90;;;;;;6229207;28;94051;-74
2023/10/04 10:13:49;;;;;;;6.03;4.57;;;23.40;99.90;;;;;;6226220;28;94148;-73
2023/10/04 10:16:54;;;;;;;4.82;4.10;;;23.40;99.90;;;;;;6220562;28;93863;-73
2023/10/04 10:19:58;;;;;;;4.20;3.78;;;23.40;99.90;;;;;;6236154;28;94192;-74
2023/10/04 10:23:13;;;;;;;4.47;3.80;;;23.40;99.90;;;;;;6228605;28;94130;-74
2023/10/04 10:26:19;;;;;;;4.43;3.88;;;23.40;99.90;;;;;;6222600;28;94179;-74
2023/10/04 10:29:22;;;;;;;4.25;3.72;;;23.40;99.90;;;;;;6233389;27;93648;-73
2023/10/04 10:32:25;;;;;;;5.43;4.22;;;23.40;99.90;;;;;;6225055;28;94123;-73
2023/10/04 10:35:56;;;;;;;5.40;4.18;;;23.40;99.90;;;;;;6236926;28;94321;-74
2023/10/04 10:38:58;;;;;;;4.40;3.88;;;23.40;99.90;;;;;;6218532;28;95489;-73
2023/10/04 10:42:00;;;;;;;4.40;3.70;;;23.40;99.90;;;;;;6228581;28;94130;-73
2023/10/04 10:45:26;;;;;;;4.05;3.50;;;23.40;99.90;;;;;;6237409;28;94128;-73
2023/10/04 10:48:33;;;;;;;4.32;3.80;;;23.40;99.90;;;;;;6224582;28;94522;-74
2023/10/04 10:51:43;;;;;;;4.30;3.90;;;23.40;99.90;;;;;;6227861;28;93088;-74
2023/10/04 10:54:46;;;;;;;4.00;3.58;;;23.40;99.90;;;;;;6227027;28;94434;-74
2023/10/04 10:57:49;;;;;;;3.95;3.53;;;23.40;99.90;;;;;;6228642;28;94130;-74
2023/10/04 11:00:51;;;;;;;4.07;3.70;;;23.40;99.90;;;;;;6228868;28;93483;-74
2023/10/04 11:03:53;;;;;;;3.95;3.47;;;23.40;99.90;;;;;;6232351;28;94059;-74
2023/10/04 11:06:57;;;;;;;3.90;3.50;;;23.40;99.90;;;;;;6236353;28;94092;-74
2023/10/04 11:09:59;;;;;;;4.20;3.63;;;23.40;99.90;;;;;;6230660;28;95241;-74
2023/10/04 11:13:08;;;;;;;3.65;3.33;;;23.30;99.90;;;;;;6225665;28;94484;-74
2023/10/04 11:16:09;;;;;;;4.00;3.60;;;23.30;99.90;;;;;;6214606;28;93302;-74
2023/10/04 11:19:12;;;;;;;4.03;3.33;;;23.40;99.90;;;;;;6234997;28;94214;-74
2023/10/04 11:22:16;;;;;;;4.53;3.35;;;23.40;99.90;;;;;;6219853;27;94013;-75
2023/10/04 11:25:18;;;;;;;3.88;3.47;;;23.40;99.90;;;;;;6228048;28;94392;-74
2023/10/04 11:28:20;;;;;;;3.70;3.20;;;23.30;99.90;;;;;;6226935;28;93119;-74
2023/10/04 11:31:23;;;;;;;3.97;3.58;;;23.40;99.90;;;;;;6227788;28;92176;-74
2023/10/04 11:34:26;;;;;;;5.38;4.00;;;23.40;99.90;;;;;;6226355;28;94534;-74
2023/10/04 11:37:30;;;;;;;4.07;3.50;;;23.30;99.90;;;;;;6226295;28;94161;-74
2023/10/04 11:40:32;;;;;;;3.80;3.40;;;23.40;99.90;;;;;;6227714;28;95343;-74
2023/10/04 11:43:34;;;;;;;3.78;3.40;;;23.40;99.90;;;;;;6227417;27;94087;-74
2023/10/04 11:46:55;;;;;;;3.53;3.22;;;23.40;99.90;;;;;;6213083;28;94193;-75
2023/10/04 11:49:59;;;;;;;3.60;3.30;;;23.40;99.90;;;;;;6226556;28;94490;-74
2023/10/04 11:53:03;;;;;;;3.70;3.30;;;23.30;99.90;;;;;;6227230;28;94095;-73
2023/10/04 11:56:07;;;;;;;3.20;2.90;;;23.40;99.90;;;;;;6226732;28;94057;-74
2023/10/04 11:59:09;;;;;;;3.72;3.42;;;23.30;99.90;;;;;;6226810;28;94044;-74
2023/10/04 12:02:11;;;;;;;4.47;3.50;;;23.40;99.90;;;;;;6218218;28;93783;-74
2023/10/04 12:05:14;;;;;;;4.55;3.38;;;23.30;99.90;;;;;;6225889;28;94322;-74
2023/10/04 12:08:19;;;;;;;4.13;3.55;;;23.30;99.90;;;;;;6226491;28;94097;-74
2023/10/04 12:11:23;;;;;;;3.40;3.10;;;23.30;99.90;;;;;;6216243;28;95248;-75
2023/10/04 12:14:26;;;;;;;3.65;3.25;;;23.40;99.90;;;;;;6224004;28;94045;-73
2023/10/04 12:17:28;;;;;;;3.60;3.05;;;23.30;99.90;;;;;;6226401;28;94636;-74
2023/10/04 12:20:35;;;;;;;3.78;3.15;;;23.30;99.90;;;;;;6227022;28;93279;-74
2023/10/04 12:23:39;;;;;;;2.95;2.70;;;23.40;99.90;;;;;;6225820;28;94343;-74
2023/10/04 12:26:41;;;;;;;3.72;3.20;;;23.30;99.90;;;;;;6229257;28;94062;-74
2023/10/04 12:29:43;;;;;;;3.75;3.00;;;23.30;99.90;;;;;;6229878;28;94037;-73
2023/10/04 12:32:46;;;;;;;4.03;3.25;;;23.30;99.90;;;;;;6232411;28;92314;-74
2023/10/04 12:35:50;;;;;;;3.40;2.95;;;23.30;99.90;;;;;;6231306;28;94078;-73
2023/10/04 12:38:54;;;;;;;3.00;2.70;;;23.30;99.90;;;;;;6230393;28;94373;-73
2023/10/04 12:41:59;;;;;;;3.75;2.95;;;23.40;99.90;;;;;;6232143;28;95143;-73
2023/10/04 12:45:01;;;;;;;4.55;2.80;;;23.30;99.90;;;;;;6230880;28;94082;-73
2023/10/04 12:48:04;;;;;;;4.70;2.90;;;23.30;99.90;;;;;;6232205;28;94056;-73
2023/10/04 12:51:06;;;;;;;3.50;2.95;;;23.30;99.90;;;;;;6225793;28;94052;-74
2023/10/04 12:54:11;;;;;;;3.92;2.80;;;23.40;99.90;;;;;;6224893;28;94745;-73
2023/10/04 12:57:13;;;;;;;5.88;3.28;;;23.40;99.90;;;;;;6227316;28;94411;-74
2023/10/04 13:00:15;;;;;;;4.75;3.00;;;23.40;99.90;;;;;;6220701;28;94110;-73
2023/10/04 13:03:17;;;;;;;4.32;2.90;;;23.30;99.90;;;;;;6222602;28;93354;-74
2023/10/04 13:06:19;;;;;;;4.88;3.00;;;23.30;99.90;;;;;;6218120;28;94097;-72
2023/10/04 13:09:26;;;;;;;4.43;3.03;;;23.30;99.90;;;;;;6215391;28;94146;-72
2023/10/04 13:12:28;;;;;;;5.35;2.85;;;23.30;99.90;;;;;;6225564;28;95194;-72
2023/10/04 13:15:32;;;;;;;5.53;3.00;;;23.40;99.90;;;;;;6230840;28;94521;-72
2023/10/04 13:18:34;;;;;;;4.50;3.05;;;23.40;99.90;;;;;;6230765;28;94198;-72
2023/10/04 13:21:37;;;;;;;6.13;3.05;;;23.40;99.90;;;;;;6227199;28;94069;-73
2023/10/04 13:24:41;;;;;;;4.50;2.88;;;23.40;99.90;;;;;;6220685;28;94188;-73
2023/10/04 13:27:43;;;;;;;3.70;2.72;;;23.30;99.90;;;;;;6225242;28;93227;-73
2023/10/04 13:30:46;;;;;;;4.97;3.05;;;23.40;99.90;;;;;;6229715;28;94215;-72
2023/10/04 13:33:47;;;;;;;4.30;2.53;;;23.30;99.90;;;;;;6231941;27;93291;-72
2023/10/04 13:36:50;;;;;;;4.13;2.70;;;23.40;99.90;;;;;;6222769;28;94124;-72
2023/10/04 13:39:54;;;;;;;3.60;2.60;;;23.40;99.90;;;;;;6226918;28;94149;-72
2023/10/04 13:42:57;;;;;;;5.45;2.60;;;23.30;99.90;;;;;;6234384;28;96728;-72
2023/10/04 13:46:03;;;;;;;4.70;2.75;;;23.30;99.90;;;;;;6225700;28;94106;-72
2023/10/04 13:49:06;;;;;;;3.50;2.85;;;23.30;99.90;;;;;;6227093;28;94053;-73
2023/10/04 13:52:07;;;;;;;5.32;2.90;;;23.30;99.90;;;;;;6229221;28;94049;-72
2023/10/04 13:55:12;;;;;;;8.60;3.50;;;23.30;99.90;;;;;;6226990;28;94098;-73
2023/10/04 13:58:17;;;;;;;4.70;3.30;;;23.30;99.90;;;;;;6226507;28;94116;-73
2023/10/04 14:01:20;;;;;;;4.50;3.40;;;23.30;99.90;;;;;;6229455;28;94089;-73
2023/10/04 14:04:22;;;;;;;4.93;3.08;;;23.30;99.90;;;;;;6228978;28;93791;-74
2023/10/04 14:07:24;;;;;;;5.57;3.15;;;23.40;99.90;;;;;;6218486;28;94176;-74
2023/10/04 14:10:28;;;;;;;4.95;3.08;;;23.40;99.90;;;;;;6229659;28;94136;-74
2023/10/04 14:13:30;;;;;;;5.85;3.30;;;23.40;99.90;;;;;;6228653;28;95007;-74
2023/10/04 14:16:32;;;;;;;4.53;2.95;;;23.40;99.90;;;;;;6229526;28;94672;-74
2023/10/04 14:19:36;;;;;;;6.10;3.00;;;23.40;99.90;;;;;;6229727;28;94095;-74
2023/10/04 14:22:38;;;;;;;5.65;2.80;;;23.30;99.90;;;;;;6241051;28;94175;-74
2023/10/04 14:25:41;;;;;;;5.22;3.08;;;23.30;99.90;;;;;;6227827;28;94486;-74
2023/10/04 14:28:43;;;;;;;4.82;3.03;;;23.40;99.90;;;;;;6227974;28;94064;-74
2023/10/04 14:31:45;;;;;;;4.32;2.53;;;23.30;99.90;;;;;;6227946;28;94480;-74
2023/10/04 14:34:50;;;;;;;7.88;3.15;;;23.30;99.90;;;;;;6223325;28;93352;-74
2023/10/04 14:37:52;;;;;;;4.63;3.15;;;23.30;99.90;;;;;;6228677;28;92953;-74
2023/10/04 14:40:56;;;;;;;4.90;3.00;;;23.40;99.90;;;;;;6227732;28;94046;-74
2023/10/04 14:43:58;;;;;;;4.45;2.90;;;23.30;99.90;;;;;;6227612;28;95043;-74
2023/10/04 14:47:00;;;;;;;5.95;2.78;;;23.40;99.90;;;;;;6216686;28;92929;-74
2023/10/04 14:50:04;;;;;;;4.75;2.63;;;23.30;99.90;;;;;;6226953;28;94385;-74
2023/10/04 14:53:07;;;;;;;3.78;2.83;;;23.30;99.90;;;;;;6228555;28;94034;-73
2023/10/04 14:56:11;;;;;;;4.60;2.63;;;23.40;99.90;;;;;;6227801;28;94284;-74
2023/10/04 14:59:13;;;;;;;4.47;2.88;;;23.40;99.90;;;;;;6228256;28;94024;-73
2023/10/04 15:02:15;;;;;;;4.72;2.72;;;23.30;99.90;;;;;;6228438;28;94002;-74
2023/10/04 15:05:18;;;;;;;5.32;2.80;;;23.40;99.90;;;;;;6226574;28;92425;-73
2023/10/04 15:08:29;;;;;;;3.92;2.80;;;23.30;99.90;;;;;;6330760;27;80258;-72
2023/10/04 15:11:33;;;;;;;5.03;2.90;;;23.30;99.90;;;;;;6306667;27;82503;-73
2023/10/04 15:14:35;;;;;;;4.65;3.10;;;23.30;99.90;;;;;;6305655;27;81591;-74
2023/10/04 15:17:38;;;;;;;4.80;2.90;;;23.30;99.90;;;;;;6310314;27;81132;-74
2023/10/04 15:20:39;;;;;;;4.07;2.78;;;23.40;99.90;;;;;;6306930;27;82318;-74
2023/10/04 15:23:43;;;;;;;4.65;3.00;;;23.30;99.90;;;;;;6303329;27;82547;-73
2023/10/04 15:26:47;;;;;;;3.97;2.60;;;23.40;99.90;;;;;;6298820;27;82396;-73
2023/10/04 15:29:50;;;;;;;4.28;2.72;;;23.30;99.90;;;;;;6304107;27;81949;-73
2023/10/04 15:32:55;;;;;;;4.60;2.85;;;23.30;99.90;;;;;;6305770;27;83633;-73
2023/10/04 15:35:57;;;;;;;4.47;3.15;;;23.30;99.90;;;;;;6305640;27;82154;-73
2023/10/04 15:39:00;;;;;;;3.45;2.50;;;23.30;99.90;;;;;;6305920;27;82521;-73
2023/10/04 15:42:04;;;;;;;3.63;2.83;;;23.30;99.90;;;;;;6305625;27;82517;-73
2023/10/04 15:45:09;;;;;;;3.95;2.67;;;23.30;99.90;;;;;;6303090;27;82388;-73
2023/10/04 15:48:13;;;;;;;3.72;2.63;;;23.30;99.90;;;;;;6304893;27;82767;-73
2023/10/04 15:51:15;;;;;;;3.17;2.60;;;23.30;99.90;;;;;;6304408;27;82656;-73